Time;durP1;ratioP1;P1;durP2;ratioP2;P2;SDS_P1;SDS_P2;PMS_P1;PMS_P2;Temp;Humidity;BMP_temperature;BMP_pressure;BME280_temperature;BME280_humidity;BME280_pressure;Samples;Min_cycle;Max_cycle;Signal;HPM_P1;HPM_P2
2022/10/02 00:01:49;;;;;;;7.85;1.83;;;;;;;;;;4914229;29;19911;-88
2022/10/02 00:04:18;;;;;;;10.68;2.40;;;;;;;;;;4914063;29;20048;-88
2022/10/02 00:06:47;;;;;;;9.15;2.60;;;;;;;;;;4914524;29;20028;-88
2022/10/02 00:09:18;;;;;;;13.75;2.20;;;;;;;;;;4914213;29;20035;-87
2022/10/02 00:11:45;;;;;;;12.25;2.97;;;;;;;;;;4914198;29;20111;-88
2022/10/02 00:14:13;;;;;;;9.73;2.70;;;;;;;;;;4914800;29;20032;-88
2022/10/02 00:16:39;;;;;;;;;;;;;;;;;;4914573;29;20050;-86
2022/10/02 00:19:05;;;;;;;9.77;2.80;;;;;;;;;;4913627;29;20287;-87
2022/10/02 00:21:31;;;;;;;16.60;3.33;;;;;;;;;;4932883;29;20476;-88
2022/10/02 00:24:01;;;;;;;21.52;4.15;;;;;;;;;;4920277;29;20047;-89
2022/10/02 00:26:27;;;;;;;21.15;3.60;;;;;;;;;;4927725;29;20114;-89
2022/10/02 00:29:04;;;;;;;16.95;3.40;;;;;;;;;;4932765;29;20106;-89
2022/10/02 00:32:09;;;;;;;26.40;3.55;;;;;;;;;;4932388;29;20063;-88
2022/10/02 00:34:44;;;;;;;18.15;3.60;;;;;;;;;;4867067;29;20625;-87
2022/10/02 00:37:30;;;;;;;20.20;3.78;;;;;;;;;;4893075;29;20098;-87
2022/10/02 00:39:59;;;;;;;19.95;3.67;;;;;;;;;;4919407;29;20088;-88
2022/10/02 00:42:39;;;;;;;18.45;4.20;;;;;;;;;;4931872;29;20065;-88
2022/10/02 00:45:26;;;;;;;25.75;3.55;;;;;;;;;;4933371;29;20036;-88
2022/10/02 00:48:02;;;;;;;29.25;3.85;;;;;;;;;;4932774;29;20098;-88
2022/10/02 00:50:28;;;;;;;29.20;4.47;;;;;;;;;;4929466;29;20031;-88
2022/10/02 00:53:13;;;;;;;24.42;3.95;;;;;;;;;;4928000;29;20107;-89
2022/10/02 00:55:55;;;;;;;22.80;3.45;;;;;;;;;;4933049;29;20042;-88
2022/10/02 00:58:36;;;;;;;29.35;3.80;;;;;;;;;;4932454;29;20032;-87
2022/10/02 01:01:05;;;;;;;38.45;4.93;;;;;;;;;;4932337;29;20031;-88
2022/10/02 01:03:35;;;;;;;22.45;3.80;;;;;;;;;;4924408;29;20733;-88
2022/10/02 01:06:02;;;;;;;27.58;4.22;;;;;;;;;;4912179;29;20359;-88
2022/10/02 01:08:28;;;;;;;22.58;4.72;;;;;;;;;;4930052;29;20039;-89
2022/10/02 01:10:54;;;;;;;24.75;4.85;;;;;;;;;;4921022;29;20028;-88
2022/10/02 01:13:20;;;;;;;28.80;4.50;;;;;;;;;;4913980;29;20032;-88
2022/10/02 01:15:51;;;;;;;27.17;3.35;;;;;;;;;;4912642;29;20036;-88
2022/10/02 01:18:18;;;;;;;26.98;3.80;;;;;;;;;;4924270;29;20031;-88
2022/10/02 01:20:48;;;;;;;17.13;4.00;;;;;;;;;;4928889;29;20131;-87
2022/10/02 01:23:34;;;;;;;31.98;4.65;;;;;;;;;;4925817;29;20059;-87
2022/10/02 01:26:00;;;;;;;30.55;4.50;;;;;;;;;;4931014;29;20496;-87
2022/10/02 01:28:27;;;;;;;33.80;4.00;;;;;;;;;;4931147;29;20477;-88
2022/10/02 01:30:56;;;;;;;27.60;3.72;;;;;;;;;;4921840;29;20123;-87
2022/10/02 01:33:22;;;;;;;23.05;3.75;;;;;;;;;;4930690;29;20036;-88
2022/10/02 01:35:48;;;;;;;31.35;4.90;;;;;;;;;;4931987;29;20031;-88
2022/10/02 01:38:16;;;;;;;21.42;4.28;;;;;;;;;;4915373;29;20485;-87
2022/10/02 01:40:42;;;;;;;21.85;4.63;;;;;;;;;;4934205;29;20032;-88
2022/10/02 01:43:11;;;;;;;28.55;4.60;;;;;;;;;;4931682;29;20038;-88
2022/10/02 01:45:37;;;;;;;;;;;;;;;;;;4923099;29;20576;-88
2022/10/02 01:48:13;;;;;;;28.15;4.65;;;;;;;;;;4929568;29;19998;-89
2022/10/02 01:50:48;;;;;;;33.67;4.70;;;;;;;;;;4934488;29;20375;-89
2022/10/02 01:53:19;;;;;;;33.75;5.07;;;;;;;;;;4934295;29;20052;-86
2022/10/02 01:56:04;;;;;;;26.42;4.55;;;;;;;;;;4934848;29;20040;-88
2022/10/02 01:58:48;;;;;;;37.85;4.85;;;;;;;;;;4924159;29;20040;-90
2022/10/02 02:01:20;;;;;;;38.53;5.32;;;;;;;;;;4932094;29;20031;-85
2022/10/02 02:03:46;;;;;;;40.75;5.82;;;;;;;;;;4929230;29;20059;-87
2022/10/02 02:06:17;;;;;;;36.90;5.65;;;;;;;;;;4933776;29;20032;-89
2022/10/02 02:08:43;;;;;;;34.38;4.40;;;;;;;;;;4927843;29;20040;-88
2022/10/02 02:11:15;;;;;;;36.65;5.32;;;;;;;;;;4917283;29;20034;-87
2022/10/02 02:13:46;;;;;;;31.88;5.00;;;;;;;;;;4935492;29;20039;-88
2022/10/02 02:16:12;;;;;;;43.67;5.78;;;;;;;;;;4934955;29;20035;-89
2022/10/02 02:18:44;;;;;;;28.25;5.00;;;;;;;;;;4925420;29;20097;-89
2022/10/02 02:21:15;;;;;;;32.85;5.10;;;;;;;;;;4924339;29;20507;-88
2022/10/02 02:23:43;;;;;;;43.58;5.82;;;;;;;;;;4921545;29;20036;-90
2022/10/02 02:26:12;;;;;;;43.53;5.47;;;;;;;;;;4936325;29;20066;-88
2022/10/02 02:28:41;;;;;;;49.00;6.07;;;;;;;;;;4936210;29;20032;-91
2022/10/02 02:31:09;;;;;;;40.63;5.35;;;;;;;;;;4928634;29;20032;-87
2022/10/02 02:33:41;;;;;;;38.35;6.13;;;;;;;;;;4933486;29;20028;-86
2022/10/02 02:36:12;;;;;;;39.30;5.72;;;;;;;;;;4934431;29;20063;-86
2022/10/02 02:38:47;;;;;;;48.00;5.97;;;;;;;;;;4925957;29;20103;-86
2022/10/02 02:41:15;;;;;;;50.83;7.03;;;;;;;;;;4924569;29;20048;-87
2022/10/02 02:43:44;;;;;;;41.85;6.65;;;;;;;;;;4922878;29;20044;-88
2022/10/02 02:46:14;;;;;;;41.17;5.43;;;;;;;;;;4924764;29;20032;-85
2022/10/02 02:48:46;;;;;;;58.65;5.75;;;;;;;;;;4922933;29;20558;-86
2022/10/02 02:51:16;;;;;;;40.70;5.22;;;;;;;;;;4925238;29;20039;-86
2022/10/02 02:54:03;;;;;;;50.50;5.78;;;;;;;;;;4925232;29;20023;-88
2022/10/02 02:56:31;;;;;;;36.90;5.80;;;;;;;;;;4926789;29;20024;-85
2022/10/02 02:59:01;;;;;;;55.33;6.80;;;;;;;;;;4918502;29;20055;-87
2022/10/02 03:01:27;;;;;;;48.60;5.55;;;;;;;;;;4921576;29;20031;-87
2022/10/02 03:03:53;;;;;;;43.67;6.18;;;;;;;;;;4920989;29;20119;-88
2022/10/02 03:06:35;;;;;;;59.42;7.30;;;;;;;;;;4923434;29;20106;-87
2022/10/02 03:09:02;;;;;;;41.03;6.15;;;;;;;;;;4926752;29;20027;-86
2022/10/02 03:11:36;;;;;;;54.92;6.63;;;;;;;;;;4921025;29;20096;-86
2022/10/02 03:14:03;;;;;;;47.70;5.75;;;;;;;;;;4927445;29;20547;-85
2022/10/02 03:16:35;;;;;;;57.70;7.10;;;;;;;;;;4922509;29;22064;-87
2022/10/02 03:19:20;;;;;;;52.60;7.82;;;;;;;;;;4929510;29;20032;-87
2022/10/02 03:21:49;;;;;;;39.67;6.78;;;;;;;;;;4923152;29;20028;-87
2022/10/02 03:24:15;;;;;;;43.30;7.78;;;;;;;;;;4923236;29;20036;-88
2022/10/02 03:26:46;;;;;;;56.42;6.60;;;;;;;;;;4922548;29;20031;-87
2022/10/02 03:29:28;;;;;;;57.67;8.10;;;;;;;;;;4923908;29;20381;-88
2022/10/02 03:31:55;;;;;;;62.78;7.32;;;;;;;;;;4922038;29;20063;-89
2022/10/02 03:34:22;;;;;;;47.78;6.90;;;;;;;;;;4933812;29;20546;-88
2022/10/02 03:36:48;;;;;;;66.70;9.07;;;;;;;;;;4922959;29;20035;-88
2022/10/02 03:39:14;;;;;;;72.35;8.38;;;;;;;;;;4933232;29;20031;-88
2022/10/02 03:41:40;;;;;;;71.63;8.57;;;;;;;;;;4932551;29;20036;-86
2022/10/02 03:44:06;;;;;;;62.15;8.38;;;;;;;;;;4932570;29;20047;-90
2022/10/02 03:46:32;;;;;;;71.15;8.32;;;;;;;;;;4922688;29;20540;-88
2022/10/02 03:48:58;;;;;;;68.43;8.32;;;;;;;;;;4932725;29;20114;-89
2022/10/02 03:51:24;;;;;;;60.20;9.40;;;;;;;;;;4931787;29;20059;-89
2022/10/02 03:53:51;;;;;;;78.63;9.55;;;;;;;;;;4934049;29;20090;-86
2022/10/02 03:56:34;;;;;;;50.63;8.27;;;;;;;;;;4932235;29;20028;-90
2022/10/02 03:59:02;;;;;;;60.72;10.02;;;;;;;;;;4932859;29;20024;-89
2022/10/02 04:01:32;;;;;;;54.45;9.25;;;;;;;;;;4932834;29;20484;-90
2022/10/02 04:04:07;;;;;;;56.33;9.52;;;;;;;;;;4933436;29;20067;-87
2022/10/02 04:06:45;;;;;;;62.15;9.90;;;;;;;;;;4933187;29;20059;-87
2022/10/02 04:09:21;;;;;;;42.00;7.82;;;;;;;;;;4931270;29;20507;-86
2022/10/02 04:11:54;;;;;;;40.78;7.95;;;;;;;;;;4915759;29;20071;-86
2022/10/02 04:14:20;;;;;;;42.08;6.75;;;;;;;;;;4933054;29;20119;-87
2022/10/02 04:16:51;;;;;;;37.25;8.65;;;;;;;;;;4932033;29;20465;-88
2022/10/02 04:19:25;;;;;;;45.63;7.63;;;;;;;;;;4933731;29;20416;-86
2022/10/02 04:21:55;;;;;;;45.53;7.80;;;;;;;;;;4932540;29;20412;-89
2022/10/02 04:24:31;;;;;;;33.60;7.22;;;;;;;;;;4932460;29;20851;-88
2022/10/02 04:27:06;;;;;;;34.45;6.93;;;;;;;;;;4932145;29;20024;-88
2022/10/02 04:29:38;;;;;;;35.85;7.15;;;;;;;;;;4932817;29;20496;-90
2022/10/02 04:32:12;;;;;;;45.50;7.75;;;;;;;;;;4930500;29;20020;-90
2022/10/02 04:34:38;;;;;;;39.22;5.97;;;;;;;;;;4928782;29;20038;-89
2022/10/02 04:37:23;;;;;;;27.80;5.53;;;;;;;;;;4914254;29;20382;-87
2022/10/02 04:40:15;;;;;;;32.95;5.57;;;;;;;;;;4925583;29;20115;-88
2022/10/02 04:42:47;;;;;;;35.50;6.22;;;;;;;;;;4894564;29;20098;-87
2022/10/02 04:45:28;;;;;;;36.30;5.63;;;;;;;;;;4924398;29;20234;-89
2022/10/02 04:48:13;;;;;;;26.42;5.43;;;;;;;;;;4921779;29;20027;-89
2022/10/02 04:50:56;;;;;;;28.83;5.72;;;;;;;;;;4928070;29;20063;-89
2022/10/02 04:53:41;;;;;;;28.38;5.55;;;;;;;;;;4932063;29;20028;-90
2022/10/02 04:56:07;;;;;;;29.67;5.28;;;;;;;;;;4931981;29;20032;-89
2022/10/02 04:58:36;;;;;;;30.10;4.97;;;;;;;;;;4916020;29;20556;-89
2022/10/02 05:01:05;;;;;;;31.00;5.45;;;;;;;;;;4930606;29;20483;-89
2022/10/02 05:03:34;;;;;;;25.35;4.90;;;;;;;;;;4931356;29;20043;-89
2022/10/02 05:06:06;;;;;;;30.77;5.32;;;;;;;;;;4935555;29;20095;-88
2022/10/02 05:08:38;;;;;;;27.27;5.30;;;;;;;;;;4938998;29;20043;-89
2022/10/02 05:11:07;;;;;;;23.63;4.45;;;;;;;;;;4940009;29;20048;-88
2022/10/02 05:13:44;;;;;;;27.92;5.38;;;;;;;;;;4935899;29;20036;-89
2022/10/02 05:16:27;;;;;;;23.58;4.03;;;;;;;;;;4930339;29;20028;-87
2022/10/02 05:18:59;;;;;;;22.55;4.65;;;;;;;;;;4930824;29;20083;-88
2022/10/02 05:21:43;;;;;;;22.40;5.07;;;;;;;;;;4931616;29;20517;-87
2022/10/02 05:24:09;;;;;;;28.50;4.15;;;;;;;;;;4931145;29;20119;-89
2022/10/02 05:26:54;;;;;;;22.40;4.55;;;;;;;;;;4929884;29;20240;-86
2022/10/02 05:29:20;;;;;;;23.15;4.15;;;;;;;;;;4930710;29;20068;-88
2022/10/02 05:31:46;;;;;;;21.42;4.07;;;;;;;;;;4929945;29;20123;-88
2022/10/02 05:34:12;;;;;;;25.60;5.30;;;;;;;;;;4922102;29;20504;-89
2022/10/02 05:36:54;;;;;;;26.83;5.03;;;;;;;;;;4921358;29;20043;-88
2022/10/02 05:39:23;;;;;;;21.52;3.60;;;;;;;;;;4928517;29;20027;-89
2022/10/02 05:41:55;;;;;;;29.25;4.43;;;;;;;;;;4930610;29;20030;-88
2022/10/02 05:44:36;;;;;;;21.75;3.28;;;;;;;;;;4917101;29;20048;-88
2022/10/02 05:47:15;;;;;;;33.30;4.25;;;;;;;;;;4931532;29;20032;-88
2022/10/02 05:49:46;;;;;;;26.70;4.10;;;;;;;;;;4931760;29;20047;-88
2022/10/02 05:52:15;;;;;;;19.88;4.10;;;;;;;;;;4921347;29;20100;-88
2022/10/02 05:54:41;;;;;;;25.63;3.78;;;;;;;;;;4912737;29;20040;-88
2022/10/02 05:57:26;;;;;;;26.98;4.93;;;;;;;;;;4919029;29;20120;-88
2022/10/02 06:03:16;;;;;;;31.02;5.03;;;;;;;;;;4870509;29;20147;-94
2022/10/02 06:06:02;;;;;;;33.63;4.82;;;;;;;;;;4869424;29;20029;-94
2022/10/02 06:08:47;;;;;;;27.63;4.80;;;;;;;;;;4875729;29;20037;-92
2022/10/02 06:11:52;;;;;;;32.92;4.47;;;;;;;;;;4868468;29;20041;-92
2022/10/02 06:14:57;;;;;;;;;;;;;;;;;;;;;
2022/10/02 06:17:46;;;;;;;27.60;5.15;;;;;;;;;;4873151;29;20029;-94
2022/10/02 06:20:20;;;;;;;28.42;5.05;;;;;;;;;;4868270;29;20517;-90
2022/10/02 06:23:00;;;;;;;24.90;5.13;;;;;;;;;;4878685;29;20051;-95
2022/10/02 06:25:34;;;;;;;30.77;4.50;;;;;;;;;;4877625;29;20490;-92
2022/10/02 06:28:20;;;;;;;37.88;4.93;;;;;;;;;;4886095;29;20045;-93
2022/10/02 06:31:06;;;;;;;29.25;5.07;;;;;;;;;;4871239;29;20025;-93
2022/10/02 06:33:42;;;;;;;;;;;;;;;;;;;;;
2022/10/02 06:36:33;;;;;;;;;;;;;;;;;;;;;
2022/10/02 06:39:23;;;;;;;37.50;5.28;;;;;;;;;;4880746;29;20050;-94
2022/10/02 06:42:08;;;;;;;;;;;;;;;;;;;;;
2022/10/02 06:44:57;;;;;;;23.88;5.25;;;;;;;;;;4927014;29;20036;-96
2022/10/02 06:47:47;;;;;;;37.00;5.47;;;;;;;;;;4922651;29;20032;-87
2022/10/02 06:53:32;;;;;;;;;;;;;;;;;;;;;
2022/10/02 06:56:35;;;;;;;;;;;;;;;;;;;;;
2022/10/02 06:59:04;;;;;;;23.75;4.93;;;;;;;;;;4929457;29;20043;-93
2022/10/02 07:01:41;;;;;;;;;;;;;;;;;;4930230;29;20719;-94
2022/10/02 07:19:41;;;;;;;23.42;4.43;;;;;;;;;;4735375;30;20066;-95
2022/10/02 07:22:19;;;;;;;26.23;4.57;;;;;;;;;;4775446;29;20164;-94
2022/10/02 07:25:09;;;;;;;26.50;5.13;;;;;;;;;;4787833;29;20062;-92
2022/10/02 07:33:54;;;;;;;28.23;5.45;;;;;;;;;;4864627;29;20045;-94
2022/10/02 07:40:12;;;;;;;;;;;;;;;;;;;;;
2022/10/02 07:45:49;;;;;;;41.50;5.10;;;;;;;;;;4924125;29;20065;-95
2022/10/02 07:51:46;;;;;;;26.25;4.75;;;;;;;;;;4903633;29;20045;-93
2022/10/02 07:54:21;;;;;;;30.23;5.85;;;;;;;;;;4919622;29;20059;-93
2022/10/02 07:59:46;;;;;;;26.20;4.78;;;;;;;;;;4927830;29;20031;-95
2022/10/02 08:06:05;;;;;;;30.83;6.00;;;;;;;;;;4901405;29;20120;-93
2022/10/02 08:08:31;;;;;;;30.63;4.70;;;;;;;;;;4865768;29;20470;-92
2022/10/02 08:11:04;;;;;;;40.65;5.50;;;;;;;;;;4903853;29;20051;-91
2022/10/02 08:13:33;;;;;;;34.40;5.65;;;;;;;;;;4914351;29;20460;-90
2022/10/02 08:16:03;;;;;;;28.65;5.22;;;;;;;;;;4912510;29;20028;-86
2022/10/02 08:18:41;;;;;;;34.92;4.88;;;;;;;;;;4913413;29;20412;-89
2022/10/02 08:21:14;;;;;;;35.92;5.22;;;;;;;;;;4930082;29;20024;-88
2022/10/02 08:23:44;;;;;;;30.88;4.60;;;;;;;;;;4931653;29;20103;-88
2022/10/02 08:26:31;;;;;;;34.25;5.18;;;;;;;;;;4930924;29;20034;-88
2022/10/02 08:29:07;;;;;;;33.95;4.65;;;;;;;;;;4931233;29;20440;-88
2022/10/02 08:31:33;;;;;;;26.95;5.13;;;;;;;;;;4913295;29;20028;-88
2022/10/02 08:34:20;;;;;;;34.33;4.68;;;;;;;;;;4914252;29;20040;-88
2022/10/02 08:36:46;;;;;;;39.40;6.22;;;;;;;;;;4927280;29;20023;-87
2022/10/02 08:39:31;;;;;;;34.22;5.65;;;;;;;;;;4932455;29;20491;-88
2022/10/02 08:42:12;;;;;;;28.52;4.30;;;;;;;;;;4930989;29;20562;-87
2022/10/02 08:44:57;;;;;;;29.23;4.53;;;;;;;;;;4931982;29;20118;-88
2022/10/02 08:47:46;;;;;;;35.00;4.78;;;;;;;;;;4931360;29;20054;-87
2022/10/02 08:50:31;;;;;;;32.60;4.65;;;;;;;;;;4906923;29;20060;-89
2022/10/02 08:53:00;;;;;;;32.42;4.65;;;;;;;;;;4914119;29;20505;-89
2022/10/02 08:55:46;;;;;;;41.63;5.47;;;;;;;;;;4928742;29;20090;-88
2022/10/02 08:58:26;;;;;;;25.08;4.30;;;;;;;;;;4928137;29;20031;-88
2022/10/02 09:01:06;;;;;;;41.85;5.90;;;;;;;;;;4929553;29;20492;-88
2022/10/02 09:03:35;;;;;;;33.70;4.95;;;;;;;;;;4925191;29;20076;-88
2022/10/02 09:06:04;;;;;;;31.83;4.55;;;;;;;;;;4924813;29;20031;-88
2022/10/02 09:08:42;;;;;;;33.72;4.63;;;;;;;;;;4932515;29;20027;-87
2022/10/02 09:11:11;;;;;;;37.72;5.35;;;;;;;;;;4931110;29;20039;-88
2022/10/02 09:13:53;;;;;;;31.45;4.30;;;;;;;;;;4920139;29;20036;-87
2022/10/02 09:16:38;;;;;;;33.85;4.90;;;;;;;;;;4928414;29;20035;-87
2022/10/02 09:19:13;;;;;;;34.58;4.95;;;;;;;;;;4930700;29;20034;-88
2022/10/02 09:21:45;;;;;;;31.52;5.25;;;;;;;;;;4931998;29;20019;-89
2022/10/02 09:24:31;;;;;;;41.72;5.15;;;;;;;;;;4935235;29;20095;-90
2022/10/02 09:27:03;;;;;;;39.92;5.50;;;;;;;;;;4885292;29;20037;-90
2022/10/02 09:29:35;;;;;;;34.83;5.13;;;;;;;;;;4913667;29;20071;-91
2022/10/02 09:32:25;;;;;;;36.97;5.03;;;;;;;;;;4928283;29;20548;-87
2022/10/02 09:35:05;;;;;;;41.20;5.47;;;;;;;;;;4915028;29;20344;-89
2022/10/02 09:37:34;;;;;;;35.97;5.22;;;;;;;;;;4921156;29;20242;-88
2022/10/02 09:40:16;;;;;;;27.55;5.05;;;;;;;;;;4921097;29;20061;-87
2022/10/02 09:43:01;;;;;;;38.25;7.22;;;;;;;;;;4921261;29;20023;-88
2022/10/02 09:45:31;;;;;;;38.10;5.72;;;;;;;;;;4919916;29;20039;-89
2022/10/02 09:48:14;;;;;;;25.38;4.30;;;;;;;;;;4923087;29;20024;-88
2022/10/02 09:50:53;;;;;;;22.00;3.70;;;;;;;;;;4918578;29;20044;-90
2022/10/02 09:53:38;;;;;;;35.03;4.88;;;;;;;;;;4916392;29;20043;-89
2022/10/02 09:56:10;;;;;;;31.60;4.97;;;;;;;;;;4922406;29;20111;-91
2022/10/02 09:58:49;;;;;;;20.40;4.07;;;;;;;;;;4928322;29;20481;-89
2022/10/02 10:01:33;;;;;;;18.60;2.95;;;;;;;;;;4930603;29;20020;-89
2022/10/02 10:04:11;;;;;;;28.63;3.65;;;;;;;;;;4931114;29;20063;-91
2022/10/02 10:06:59;;;;;;;20.08;3.33;;;;;;;;;;4923954;29;20028;-91
2022/10/02 10:09:25;;;;;;;;;;;;;;;;;;4922531;29;20040;-85
2022/10/02 10:12:09;;;;;;;19.65;3.72;;;;;;;;;;4924638;29;19907;-86
2022/10/02 10:14:38;;;;;;;18.90;3.70;;;;;;;;;;4926541;29;20437;-85
2022/10/02 10:17:12;;;;;;;17.70;3.05;;;;;;;;;;4924725;29;20034;-87
2022/10/02 10:19:55;;;;;;;23.90;3.75;;;;;;;;;;4922263;29;20040;-88
2022/10/02 10:22:33;;;;;;;16.92;3.00;;;;;;;;;;4921973;29;20070;-88
2022/10/02 10:25:02;;;;;;;25.95;3.58;;;;;;;;;;4925154;29;20036;-87
2022/10/02 10:27:35;;;;;;;22.45;4.22;;;;;;;;;;4927035;29;20047;-87
2022/10/02 10:30:20;;;;;;;23.58;3.50;;;;;;;;;;4920464;29;20043;-87
2022/10/02 10:33:14;;;;;;;18.67;3.15;;;;;;;;;;4937625;29;20034;-90
2022/10/02 10:39:18;;;;;;;17.30;3.20;;;;;;;;;;4878727;29;20142;-92
2022/10/02 10:42:08;;;;;;;17.50;2.92;;;;;;;;;;4921732;29;20034;-91
2022/10/02 10:45:00;;;;;;;17.05;3.90;;;;;;;;;;4930342;29;20047;-93
2022/10/02 10:47:39;;;;;;;22.08;3.03;;;;;;;;;;4920558;29;20135;-91
2022/10/02 10:50:08;;;;;;;21.55;3.20;;;;;;;;;;4934787;29;20019;-91
2022/10/02 10:52:37;;;;;;;21.08;3.60;;;;;;;;;;4942754;28;20028;-92
2022/10/02 10:55:14;;;;;;;20.92;3.58;;;;;;;;;;4934974;29;20087;-92
2022/10/02 10:57:52;;;;;;;25.60;3.40;;;;;;;;;;4933777;29;20049;-92
2022/10/02 11:00:28;;;;;;;20.30;3.38;;;;;;;;;;4934609;29;20024;-91
2022/10/02 11:03:00;;;;;;;14.43;2.75;;;;;;;;;;4931051;29;20030;-90
2022/10/02 11:05:46;;;;;;;13.82;2.50;;;;;;;;;;4933688;29;20040;-91
2022/10/02 11:08:30;;;;;;;14.70;2.88;;;;;;;;;;4928800;29;20040;-90
2022/10/02 11:11:02;;;;;;;17.73;2.75;;;;;;;;;;4934283;29;20034;-87
2022/10/02 11:13:29;;;;;;;13.98;2.90;;;;;;;;;;4915350;29;20032;-91
2022/10/02 11:16:07;;;;;;;15.48;2.78;;;;;;;;;;4933946;29;20301;-90
2022/10/02 11:18:51;;;;;;;18.25;3.13;;;;;;;;;;4922653;29;20083;-90
2022/10/02 11:21:23;;;;;;;14.82;3.22;;;;;;;;;;4923404;29;20123;-92
2022/10/02 11:24:10;;;;;;;14.77;3.70;;;;;;;;;;4940118;29;20083;-93
2022/10/02 11:26:48;;;;;;;19.00;2.73;;;;;;;;;;4936064;29;20028;-89
2022/10/02 11:32:08;;;;;;;13.27;3.10;;;;;;;;;;4917015;29;20307;-88
2022/10/02 11:34:50;;;;;;;13.75;3.22;;;;;;;;;;4917051;29;20032;-91
2022/10/02 11:37:24;;;;;;;21.50;2.92;;;;;;;;;;4917654;29;20028;-91
2022/10/02 11:40:18;;;;;;;;;;;;;;;;;;;;;
2022/10/02 11:42:55;;;;;;;21.38;3.05;;;;;;;;;;4925445;29;20119;-91
2022/10/02 11:46:03;;;;;;;;;;;;;;;;;;;;;
2022/10/02 11:48:42;;;;;;;16.63;3.22;;;;;;;;;;4932119;29;20036;-90
2022/10/02 11:51:35;;;;;;;21.58;3.50;;;;;;;;;;4951895;29;20067;-89
2022/10/02 11:54:43;;;;;;;19.98;2.95;;;;;;;;;;4927342;29;20091;-91
2022/10/02 11:57:34;;;;;;;23.05;3.28;;;;;;;;;;4874212;29;20040;-91
2022/10/02 12:00:33;;;;;;;;;;;;;;;;;;;;;
2022/10/02 12:03:19;;;;;;;16.50;3.03;;;;;;;;;;4891477;29;20033;-90
2022/10/02 12:05:54;;;;;;;18.95;3.67;;;;;;;;;;4873918;29;20044;-89
2022/10/02 12:08:49;;;;;;;21.25;3.80;;;;;;;;;;4907315;29;20075;-92
2022/10/02 12:11:20;;;;;;;21.85;4.15;;;;;;;;;;4931882;29;20063;-90
2022/10/02 12:28:49;;;;;;;23.88;4.40;;;;;;;;;;4909420;29;20498;-92
2022/10/02 12:31:29;;;;;;;17.10;3.60;;;;;;;;;;4928587;29;20102;-90
2022/10/02 12:34:01;;;;;;;17.77;3.72;;;;;;;;;;4930333;29;20411;-92
2022/10/02 12:36:54;;;;;;;17.98;2.92;;;;;;;;;;4924269;29;20301;-91
2022/10/02 12:39:53;;;;;;;22.60;3.30;;;;;;;;;;4924032;29;20460;-91
2022/10/02 12:42:40;;;;;;;24.35;3.55;;;;;;;;;;4898368;29;20039;-91
2022/10/02 12:45:37;;;;;;;;;;;;;;;;;;;;;
2022/10/02 12:48:16;;;;;;;24.92;4.25;;;;;;;;;;4931379;29;20097;-90
2022/10/02 12:51:04;;;;;;;23.23;3.38;;;;;;;;;;4929638;29;20047;-91
2022/10/02 12:53:48;;;;;;;20.35;3.83;;;;;;;;;;4926017;29;20052;-91
2022/10/02 12:56:49;;;;;;;;;;;;;;;;;;;;;
2022/10/02 12:59:31;;;;;;;;;;;;;;;;;;;;;
2022/10/02 13:02:19;;;;;;;20.08;4.18;;;;;;;;;;4928063;29;20652;-88
2022/10/02 13:05:15;;;;;;;18.35;3.47;;;;;;;;;;4932052;29;20563;-91
2022/10/02 13:11:35;;;;;;;;;;;;;;;;;;;;;
2022/10/02 13:14:43;;;;;;;16.33;3.22;;;;;;;;;;4920586;29;20052;-91
2022/10/02 13:17:36;;;;;;;20.80;3.33;;;;;;;;;;4936040;29;20043;-90
2022/10/02 13:20:12;;;;;;;18.10;3.28;;;;;;;;;;4924430;29;20036;-90
2022/10/02 13:22:50;;;;;;;20.88;3.25;;;;;;;;;;4946007;29;20012;-89
2022/10/02 13:28:45;;;;;;;16.98;2.97;;;;;;;;;;4953490;29;20032;-90
2022/10/02 13:31:39;;;;;;;15.35;2.85;;;;;;;;;;4935401;29;20484;-90
2022/10/02 13:34:33;;;;;;;21.85;2.95;;;;;;;;;;4925822;29;20038;-90
2022/10/02 13:43:39;;;;;;;20.63;3.20;;;;;;;;;;4837747;29;20138;-91
2022/10/02 13:46:45;;;;;;;;;;;;;;;;;;;;;
2022/10/02 13:56:10;;;;;;;23.05;3.90;;;;;;;;;;4823774;29;20034;-92
2022/10/02 14:04:45;;;;;;;20.52;3.65;;;;;;;;;;4832779;29;19963;-92
2022/10/02 14:07:18;;;;;;;20.20;2.95;;;;;;;;;;4848927;29;20042;-90
2022/10/02 14:09:44;;;;;;;18.23;3.20;;;;;;;;;;4883434;29;20039;-90
2022/10/02 14:12:26;;;;;;;18.10;2.70;;;;;;;;;;4915917;29;20036;-89
2022/10/02 14:15:10;;;;;;;12.13;2.33;;;;;;;;;;4915859;29;20020;-92
2022/10/02 14:17:56;;;;;;;12.48;2.88;;;;;;;;;;4913057;29;20036;-90
2022/10/02 14:20:38;;;;;;;18.33;2.72;;;;;;;;;;4917235;29;20044;-90
2022/10/02 14:23:17;;;;;;;14.63;2.70;;;;;;;;;;4920532;29;20028;-90
2022/10/02 14:25:43;;;;;;;12.40;2.40;;;;;;;;;;4914133;29;20552;-89
2022/10/02 14:28:12;;;;;;;13.13;2.35;;;;;;;;;;4915381;29;20028;-89
2022/10/02 14:30:41;;;;;;;16.83;2.72;;;;;;;;;;4929937;29;20063;-95
2022/10/02 14:33:18;;;;;;;13.25;3.20;;;;;;;;;;4932374;29;20487;-90
2022/10/02 14:35:50;;;;;;;21.45;3.15;;;;;;;;;;4933349;29;20114;-89
2022/10/02 14:38:34;;;;;;;14.07;2.83;;;;;;;;;;4930346;29;20028;-90
2022/10/02 14:41:23;;;;;;;12.95;2.35;;;;;;;;;;4924084;29;20035;-91
2022/10/02 14:44:01;;;;;;;13.75;2.63;;;;;;;;;;4934885;29;20043;-90
2022/10/02 14:46:30;;;;;;;14.13;3.63;;;;;;;;;;4926991;29;20115;-90
2022/10/02 14:49:00;;;;;;;16.98;3.80;;;;;;;;;;4922014;29;20039;-90
2022/10/02 14:51:28;;;;;;;16.25;3.20;;;;;;;;;;4914744;29;20031;-89
2022/10/02 14:53:59;;;;;;;15.27;3.25;;;;;;;;;;4927915;29;20038;-90
2022/10/02 14:56:35;;;;;;;10.63;2.70;;;;;;;;;;4914659;29;20406;-90
2022/10/02 14:59:13;;;;;;;10.77;2.90;;;;;;;;;;4915642;29;20032;-89
2022/10/02 15:01:59;;;;;;;11.18;3.20;;;;;;;;;;4915260;29;20024;-91
2022/10/02 15:04:43;;;;;;;22.90;3.75;;;;;;;;;;4924877;29;20036;-91
2022/10/02 15:10:24;;;;;;;14.87;3.00;;;;;;;;;;4914890;29;20035;-91
2022/10/02 15:13:05;;;;;;;12.35;2.75;;;;;;;;;;4926910;29;20035;-90
2022/10/02 15:15:43;;;;;;;15.88;2.97;;;;;;;;;;4929254;29;20028;-90
2022/10/02 15:18:25;;;;;;;20.73;3.95;;;;;;;;;;4921689;29;20556;-90
2022/10/02 15:21:25;;;;;;;16.40;3.58;;;;;;;;;;4924586;29;20064;-92
2022/10/02 15:23:57;;;;;;;14.23;3.55;;;;;;;;;;4860507;29;20083;-92
2022/10/02 15:26:32;;;;;;;19.85;4.28;;;;;;;;;;4877120;29;20060;-89
2022/10/02 15:29:20;;;;;;;19.40;4.10;;;;;;;;;;4931603;29;20067;-91
2022/10/02 15:32:05;;;;;;;24.33;4.90;;;;;;;;;;4929179;29;20481;-90
2022/10/02 15:34:50;;;;;;;24.67;4.28;;;;;;;;;;4929834;29;20107;-91
2022/10/02 15:37:31;;;;;;;16.77;4.05;;;;;;;;;;4933336;29;20097;-90
2022/10/02 15:40:08;;;;;;;17.98;4.03;;;;;;;;;;4925236;29;20032;-91
2022/10/02 15:42:43;;;;;;;15.95;3.05;;;;;;;;;;4917069;29;20624;-90
2022/10/02 15:45:21;;;;;;;13.20;3.10;;;;;;;;;;4930153;29;20489;-91
2022/10/02 15:48:08;;;;;;;14.93;3.30;;;;;;;;;;4931078;29;20376;-90
2022/10/02 15:50:38;;;;;;;12.85;2.90;;;;;;;;;;4932943;29;20122;-90
2022/10/02 15:53:22;;;;;;;14.65;3.25;;;;;;;;;;4928503;29;20031;-91
2022/10/02 15:55:59;;;;;;;15.07;2.80;;;;;;;;;;4936252;29;20091;-89
2022/10/02 15:58:28;;;;;;;12.25;2.85;;;;;;;;;;4949086;29;20043;-90
2022/10/02 16:01:00;;;;;;;12.80;2.78;;;;;;;;;;4955286;29;20083;-90
2022/10/02 16:03:38;;;;;;;9.43;2.55;;;;;;;;;;4938856;29;20112;-90
2022/10/02 16:06:14;;;;;;;7.10;2.50;;;;;;;;;;4916375;29;20115;-90
2022/10/02 16:08:57;;;;;;;11.50;2.72;;;;;;;;;;4914905;29;20024;-90
2022/10/02 16:11:38;;;;;;;9.35;2.65;;;;;;;;;;4930129;29;20508;-90
2022/10/02 16:14:05;;;;;;;9.32;2.42;;;;;;;;;;4915758;29;20087;-89
2022/10/02 16:16:31;;;;;;;8.85;2.47;;;;;;;;;;4913609;29;20033;-90
2022/10/02 16:19:17;;;;;;;9.63;2.72;;;;;;;;;;4913516;29;20385;-89
2022/10/02 16:21:55;;;;;;;12.25;3.00;;;;;;;;;;4914019;29;20032;-91
2022/10/02 16:24:37;;;;;;;8.07;3.10;;;;;;;;;;4913507;29;20516;-90
2022/10/02 16:27:09;;;;;;;8.10;3.10;;;;;;;;;;4926330;29;20198;-90
2022/10/02 16:29:48;;;;;;;15.23;5.68;;;;;;;;;;4923240;29;20122;-89
2022/10/02 16:32:28;;;;;;;21.13;8.73;;;;;;;;;;4913135;29;20032;-89
2022/10/02 16:35:25;;;;;;;;;;;;;;;;;;;;;
2022/10/02 16:38:10;;;;;;;9.73;3.35;;;;;;;;;;4933169;29;20035;-90
2022/10/02 16:40:44;;;;;;;12.20;3.10;;;;;;;;;;4932166;29;20028;-90
2022/10/02 16:43:26;;;;;;;8.00;3.13;;;;;;;;;;4917109;29;20036;-90
2022/10/02 16:46:04;;;;;;;5.95;2.72;;;;;;;;;;4912606;29;20040;-90
2022/10/02 16:48:36;;;;;;;10.68;3.25;;;;;;;;;;4918350;29;20035;-90
2022/10/02 16:51:07;;;;;;;10.57;3.45;;;;;;;;;;4931620;29;20027;-89
2022/10/02 16:54:02;;;;;;;10.65;3.40;;;;;;;;;;4931951;29;20829;-89
2022/10/02 16:56:28;;;;;;;8.85;2.80;;;;;;;;;;4896264;29;20052;-90
2022/10/02 16:58:58;;;;;;;9.90;3.10;;;;;;;;;;4928803;29;20035;-89
2022/10/02 17:01:24;;;;;;;8.65;3.20;;;;;;;;;;4929741;29;20499;-90
2022/10/02 17:03:55;;;;;;;8.48;3.40;;;;;;;;;;4923789;29;20531;-89
2022/10/02 17:06:31;;;;;;;7.95;2.88;;;;;;;;;;4912680;29;20043;-89
2022/10/02 17:09:00;;;;;;;9.35;3.13;;;;;;;;;;4912583;29;20024;-89
2022/10/02 17:11:36;;;;;;;11.20;2.90;;;;;;;;;;4913986;29;20107;-89
2022/10/02 17:14:05;;;;;;;12.65;3.50;;;;;;;;;;4913151;29;20063;-90
2022/10/02 17:16:37;;;;;;;9.48;3.35;;;;;;;;;;4913365;29;20117;-89
2022/10/02 17:19:19;;;;;;;5.45;2.30;;;;;;;;;;4913284;29;20040;-89
2022/10/02 17:21:53;;;;;;;13.65;2.70;;;;;;;;;;4914361;29;20020;-90